Steele, North Dakota
Current Conditions -  °F | °C
As of 9:52 AM on Sunday 21 Dec 2014 (Local Time) from KBIS Reporting Station
Clear Clear  
Wind Chill: 19°   Ceiling: Unl
Heat Index: 25°   Visibility: 10mi
Dew Point: 23°   Wind: 5mph
Humidity: 92%   Direction: 140°SE
Pressure: 29.56"   Gusts: NA
Location:  46.85°N, 99.92°W
Report Text: KBIS 211552Z 14004KT 10SM CLR M04/M05 A2956 RMK AO2 SLP036 T10391050
Loading
Personal Weather Stations






























Interactive Weather Map New forecast layout! Learn more

10-Day Weather Forecast

Advertisements
Track Severe Weather on mobile